Time;durP1;ratioP1;P1;durP2;ratioP2;P2;SDS_P1;SDS_P2;PMS_P1;PMS_P2;Temp;Humidity;BMP_temperature;BMP_pressure;BME280_temperature;BME280_humidity;BME280_pressure;Samples;Min_cycle;Max_cycle;Signal;HPM_P1;HPM_P2
2022/01/27 00:01:02;;;;;;;4.97;1.08;;;28.50;74.30;;;;;;5060777;28;20466;-85
2022/01/27 00:03:34;;;;;;;5.20;1.20;;;28.20;75.40;;;;;;5072727;28;20450;-83
2022/01/27 00:06:06;;;;;;;3.77;1.20;;;28.10;75.60;;;;;;5072856;28;20366;-82
2022/01/27 00:08:42;;;;;;;3.95;1.17;;;27.70;75.80;;;;;;5072573;28;20366;-85
2022/01/27 00:11:13;;;;;;;4.45;1.10;;;27.90;78.10;;;;;;5072762;28;20358;-84
2022/01/27 00:13:46;;;;;;;2.63;1.00;;;28.40;74.70;;;;;;5072719;28;20704;-85
2022/01/27 00:16:21;;;;;;;4.38;0.93;;;28.80;73.50;;;;;;5072629;28;20505;-83
2022/01/27 00:18:52;;;;;;;3.60;1.00;;;28.80;70.00;;;;;;5072497;28;20462;-85
2022/01/27 00:21:21;;;;;;;4.68;1.38;;;29.00;70.00;;;;;;5072744;28;20366;-86
2022/01/27 00:23:48;;;;;;;2.63;1.08;;;29.20;69.80;;;;;;5072466;28;20402;-85
2022/01/27 00:26:17;;;;;;;3.00;1.10;;;29.30;65.90;;;;;;5072390;28;20876;-83
2022/01/27 00:28:46;;;;;;;4.43;1.23;;;28.80;67.90;;;;;;5072314;28;20389;-83
2022/01/27 00:31:14;;;;;;;4.32;1.20;;;28.70;70.40;;;;;;5054668;28;20910;-83
2022/01/27 00:33:43;;;;;;;6.38;1.40;;;28.60;69.60;;;;;;5072432;28;20382;-86
2022/01/27 00:36:10;;;;;;;4.78;1.38;;;28.30;71.90;;;;;;5072339;28;20370;-84
2022/01/27 00:38:38;;;;;;;4.30;1.10;;;28.20;72.60;;;;;;5072123;28;20374;-83
2022/01/27 00:41:05;;;;;;;3.30;1.10;;;28.50;71.50;;;;;;5073786;28;20495;-82
2022/01/27 00:43:32;;;;;;;4.85;1.10;;;28.60;69.90;;;;;;5072004;28;20385;-82
2022/01/27 00:45:59;;;;;;;3.90;1.00;;;28.20;70.00;;;;;;5072224;28;20390;-84
2022/01/27 00:48:26;;;;;;;5.65;1.30;;;27.90;70.90;;;;;;5072131;28;20381;-85
2022/01/27 00:51:00;;;;;;;5.28;1.10;;;28.10;71.30;;;;;;5071982;28;20469;-83
2022/01/27 00:53:51;;;;;;;5.28;1.20;;;28.60;71.60;;;;;;5072107;28;20449;-84
2022/01/27 00:56:30;;;;;;;4.55;1.10;;;28.90;69.30;;;;;;5072138;28;20371;-84
2022/01/27 00:59:06;;;;;;;4.57;1.30;;;29.30;69.30;;;;;;5071830;28;20845;-84
2022/01/27 01:01:39;;;;;;;3.28;1.20;;;29.50;69.50;;;;;;5072259;28;20696;-82
2022/01/27 01:04:09;;;;;;;5.20;1.17;;;29.20;70.20;;;;;;5071722;28;20476;-84
2022/01/27 01:06:43;;;;;;;4.30;1.15;;;29.20;70.10;;;;;;5071919;28;20374;-85
2022/01/27 01:15:06;;;;;;;5.20;1.17;;;28.80;71.10;;;;;;5072248;28;20370;-88
2022/01/27 01:17:54;;;;;;;4.93;1.20;;;28.90;70.60;;;;;;5071883;28;20883;-88
2022/01/27 01:20:32;;;;;;;5.50;1.20;;;29.10;70.50;;;;;;5071856;28;20378;-82
2022/01/27 01:33:58;;;;;;;4.07;1.08;;;30.80;63.50;;;;;;5073098;28;20792;-89
2022/01/27 01:37:09;;;;;;;3.28;1.20;;;30.60;63.70;;;;;;5071707;28;20725;-83
2022/01/27 01:39:15;;;;;;;7.80;1.20;;;30.90;63.60;;;;;;5063422;28;20374;-88
2022/01/27 01:41:43;;;;;;;5.32;1.10;;;31.00;62.90;;;;;;5071532;28;20406;-86
2022/01/27 01:44:10;;;;;;;3.63;0.98;;;30.60;64.10;;;;;;5071591;28;20900;-85
2022/01/27 01:46:37;;;;;;;3.53;1.10;;;30.60;63.10;;;;;;5071794;28;20401;-89
2022/01/27 01:49:04;;;;;;;3.20;1.10;;;30.50;64.00;;;;;;5071727;28;20465;-88
2022/01/27 01:51:34;;;;;;;3.88;1.10;;;30.50;64.90;;;;;;5053723;28;20789;-88
2022/01/27 01:54:01;;;;;;;3.78;1.00;;;30.40;64.30;;;;;;5074675;28;20382;-89
2022/01/27 01:56:28;;;;;;;2.53;0.90;;;30.70;63.70;;;;;;5075255;28;20373;-85
2022/01/27 01:58:55;;;;;;;3.40;1.20;;;31.00;63.70;;;;;;5075285;28;20374;-88
2022/01/27 02:01:22;;;;;;;3.30;1.00;;;31.40;61.20;;;;;;5075252;28;20741;-89
2022/01/27 02:03:50;;;;;;;3.95;1.30;;;30.90;61.00;;;;;;5075521;28;20408;-86
2022/01/27 02:06:30;;;;;;;4.28;1.35;;;30.60;62.50;;;;;;5074907;28;20784;-87
2022/01/27 02:20:00;;;;;;;5.65;1.20;;;31.60;60.50;;;;;;5075454;28;20369;-89
2022/01/27 02:22:28;;;;;;;3.47;1.10;;;31.70;61.20;;;;;;5074787;28;20891;-89
2022/01/27 02:24:55;;;;;;;5.97;1.27;;;32.10;59.50;;;;;;5074681;28;20412;-89
2022/01/27 02:27:22;;;;;;;3.80;1.20;;;32.40;59.00;;;;;;5074857;28;20428;-88
2022/01/27 02:29:50;;;;;;;4.97;1.20;;;32.40;58.30;;;;;;5074910;28;20453;-83
2022/01/27 02:32:19;;;;;;;4.28;1.20;;;32.30;58.00;;;;;;5074751;28;20377;-89
2022/01/27 02:34:46;;;;;;;5.20;1.30;;;32.30;58.00;;;;;;5074579;28;20484;-89
2022/01/27 02:37:13;;;;;;;3.47;1.00;;;32.50;57.60;;;;;;5074888;28;20419;-85
2022/01/27 02:39:41;;;;;;;5.10;1.20;;;32.00;57.80;;;;;;5074657;28;20378;-87
2022/01/27 02:42:30;;;;;;;3.70;1.10;;;31.80;58.50;;;;;;5074353;28;20421;-83
2022/01/27 02:45:01;;;;;;;2.90;1.10;;;31.50;57.60;;;;;;5074682;28;20429;-85
2022/01/27 02:47:28;;;;;;;2.65;1.10;;;31.10;59.10;;;;;;5074905;28;20363;-87
2022/01/27 02:49:56;;;;;;;4.10;1.00;;;30.80;60.90;;;;;;5074442;28;20388;-87
2022/01/27 02:52:23;;;;;;;5.18;1.20;;;30.80;62.00;;;;;;5074381;28;20381;-85
2022/01/27 02:54:50;;;;;;;3.92;1.20;;;30.50;62.80;;;;;;5074430;28;20752;-87
2022/01/27 02:57:19;;;;;;;4.88;1.20;;;30.50;63.40;;;;;;5074217;28;20374;-88
2022/01/27 02:59:46;;;;;;;4.63;1.15;;;31.10;63.80;;;;;;5074228;28;20745;-84
2022/01/27 03:02:13;;;;;;;4.15;1.15;;;32.50;62.30;;;;;;5074137;28;20417;-87
2022/01/27 03:04:41;;;;;;;4.07;1.38;;;33.10;58.50;;;;;;5076891;28;20398;-83
2022/01/27 03:07:09;;;;;;;6.03;1.30;;;32.50;58.70;;;;;;5080294;28;20734;-85
2022/01/27 03:09:37;;;;;;;6.18;1.30;;;32.50;61.60;;;;;;5074161;28;20385;-85
2022/01/27 03:12:13;;;;;;;5.40;1.20;;;33.10;59.90;;;;;;5074194;28;20717;-88
2022/01/27 03:14:43;;;;;;;4.53;1.25;;;33.30;57.20;;;;;;5074065;28;20452;-88
2022/01/27 03:17:12;;;;;;;5.13;1.47;;;32.90;56.80;;;;;;5073906;28;20841;-86
2022/01/27 03:19:39;;;;;;;5.47;1.40;;;32.30;58.90;;;;;;5074103;28;20837;-88
2022/01/27 03:22:08;;;;;;;4.25;1.48;;;31.70;60.30;;;;;;5074689;28;20749;-84
2022/01/27 03:24:36;;;;;;;4.40;1.48;;;31.60;60.20;;;;;;5074827;28;20398;-81
2022/01/27 03:27:14;;;;;;;4.40;1.40;;;31.10;60.70;;;;;;5085140;28;20362;-81
2022/01/27 03:29:41;;;;;;;3.92;1.30;;;30.60;61.70;;;;;;5078557;28;20382;-87
2022/01/27 03:32:08;;;;;;;4.68;1.60;;;30.30;63.10;;;;;;5073674;28;20374;-83
2022/01/27 03:34:35;;;;;;;4.78;1.70;;;30.20;65.20;;;;;;5073801;28;20457;-87
2022/01/27 03:37:02;;;;;;;3.83;1.70;;;30.10;64.80;;;;;;5073623;28;20440;-85
2022/01/27 03:39:29;;;;;;;5.60;1.60;;;30.00;65.30;;;;;;5073749;28;20397;-88
2022/01/27 03:41:57;;;;;;;4.78;1.50;;;29.70;66.10;;;;;;5073085;28;20386;-85
2022/01/27 03:44:25;;;;;;;3.55;1.73;;;29.50;66.00;;;;;;5073234;28;20398;-85
2022/01/27 03:46:55;;;;;;;4.03;1.65;;;29.20;68.20;;;;;;5055336;28;20385;-86
2022/01/27 03:49:22;;;;;;;5.43;1.80;;;29.10;68.50;;;;;;5073566;28;20409;-87
2022/01/27 03:51:49;;;;;;;5.40;1.60;;;28.90;68.70;;;;;;5073125;28;20374;-85
2022/01/27 03:54:17;;;;;;;5.78;1.80;;;28.90;68.80;;;;;;5073156;28;20768;-89
2022/01/27 03:56:44;;;;;;;4.45;1.60;;;29.10;68.90;;;;;;5073052;28;20394;-89
2022/01/27 03:59:11;;;;;;;5.30;1.50;;;29.10;68.80;;;;;;5073329;28;20448;-89
2022/01/27 04:01:39;;;;;;;5.28;1.55;;;29.20;68.80;;;;;;5073039;28;20422;-89
2022/01/27 04:04:06;;;;;;;4.88;1.60;;;29.30;68.80;;;;;;5072825;28;20402;-87
2022/01/27 04:06:39;;;;;;;4.90;1.77;;;29.40;68.80;;;;;;5072769;28;20374;-87
2022/01/27 04:09:08;;;;;;;5.88;1.90;;;29.50;70.00;;;;;;5073057;28;20425;-85
2022/01/27 04:11:36;;;;;;;5.40;1.90;;;29.50;69.50;;;;;;5076423;28;20366;-82
2022/01/27 04:14:03;;;;;;;4.32;1.90;;;29.30;69.30;;;;;;5072768;28;20402;-86
2022/01/27 04:16:30;;;;;;;3.45;1.60;;;29.30;69.70;;;;;;5072741;28;20370;-82
2022/01/27 04:18:57;;;;;;;4.70;2.05;;;29.20;69.50;;;;;;5072674;28;20378;-89
2022/01/27 04:21:24;;;;;;;5.75;2.03;;;29.10;69.50;;;;;;5054670;28;20378;-86
2022/01/27 04:23:51;;;;;;;6.07;1.92;;;29.00;70.50;;;;;;5072381;28;20925;-87
2022/01/27 04:26:24;;;;;;;6.07;2.00;;;28.90;70.60;;;;;;5072277;28;20378;-88
2022/01/27 04:28:52;;;;;;;6.03;2.10;;;28.70;71.10;;;;;;5072626;28;20406;-86
2022/01/27 04:31:20;;;;;;;6.50;2.10;;;28.40;72.30;;;;;;5072524;28;20757;-83
2022/01/27 04:33:47;;;;;;;6.05;2.20;;;28.30;73.60;;;;;;5073301;28;20382;-83
2022/01/27 04:36:24;;;;;;;5.57;2.03;;;28.40;73.40;;;;;;5072329;28;20385;-84
2022/01/27 04:47:17;;;;;;;6.10;1.80;;;28.70;71.60;;;;;;5071450;28;20440;-83
2022/01/27 04:49:45;;;;;;;4.28;1.90;;;28.80;70.50;;;;;;5072029;28;20712;-87
2022/01/27 04:52:12;;;;;;;4.07;2.03;;;28.60;71.50;;;;;;5072233;28;20483;-88
2022/01/27 04:54:57;;;;;;;7.28;2.20;;;28.70;71.70;;;;;;5072033;28;20402;-85
2022/01/27 04:57:27;;;;;;;5.75;2.17;;;28.90;71.50;;;;;;5072282;28;20786;-88
2022/01/27 04:59:54;;;;;;;5.57;2.13;;;29.10;72.10;;;;;;5072115;28;20860;-86
2022/01/27 05:02:33;;;;;;;5.37;2.07;;;29.10;70.80;;;;;;5072267;28;20373;-89
2022/01/27 05:05:00;;;;;;;6.47;2.10;;;29.00;71.50;;;;;;5072223;28;20477;-89
2022/01/27 05:07:27;;;;;;;5.90;1.80;;;29.00;71.40;;;;;;5072435;28;20373;-84
2022/01/27 05:10:07;;;;;;;6.40;1.67;;;28.90;72.90;;;;;;5074427;28;20459;-82
2022/01/27 05:12:44;;;;;;;5.10;1.67;;;28.90;73.20;;;;;;5075166;28;20423;-87
2022/01/27 05:15:12;;;;;;;5.47;1.88;;;28.80;73.70;;;;;;5075469;28;20382;-84
2022/01/27 05:17:39;;;;;;;5.10;1.60;;;28.70;74.60;;;;;;5073058;28;20772;-87
2022/01/27 05:20:06;;;;;;;5.90;1.77;;;28.50;74.20;;;;;;5072241;28;20461;-85
2022/01/27 05:22:33;;;;;;;5.67;1.80;;;28.40;75.00;;;;;;5074750;28;20445;-82
2022/01/27 05:25:00;;;;;;;6.10;2.03;;;28.10;76.30;;;;;;5073477;28;20397;-88
2022/01/27 05:27:27;;;;;;;7.20;2.15;;;27.90;76.70;;;;;;5072719;28;20378;-84
2022/01/27 05:29:54;;;;;;;7.30;2.17;;;27.70;78.20;;;;;;5075874;28;20833;-78
2022/01/27 05:32:21;;;;;;;6.07;1.95;;;27.70;79.60;;;;;;5075568;28;20385;-81
2022/01/27 05:34:48;;;;;;;5.28;1.80;;;27.70;78.60;;;;;;5075584;28;20745;-82
2022/01/27 05:37:15;;;;;;;4.45;1.70;;;27.80;78.80;;;;;;5075603;28;20434;-84
2022/01/27 05:39:42;;;;;;;7.47;2.03;;;27.70;79.10;;;;;;5075152;28;20366;-83
2022/01/27 05:42:11;;;;;;;8.18;2.10;;;27.60;79.50;;;;;;5075238;28;20386;-84
2022/01/27 05:44:38;;;;;;;8.00;1.90;;;27.60;80.30;;;;;;5075183;28;20413;-83
2022/01/27 05:47:05;;;;;;;5.75;1.80;;;27.60;81.00;;;;;;5075309;28;20379;-85
2022/01/27 05:49:32;;;;;;;5.43;1.80;;;27.40;83.50;;;;;;5075386;28;20378;-84
2022/01/27 05:51:59;;;;;;;5.28;1.75;;;27.30;82.50;;;;;;5075326;28;20370;-85
2022/01/27 05:54:26;;;;;;;4.80;1.70;;;27.30;83.20;;;;;;5075010;28;20385;-82
2022/01/27 05:56:53;;;;;;;7.35;1.63;;;27.30;83.90;;;;;;5074987;28;20370;-88
2022/01/27 05:59:20;;;;;;;7.53;1.60;;;27.30;83.70;;;;;;5075011;28;20374;-83
2022/01/27 06:01:48;;;;;;;5.93;1.92;;;27.30;83.80;;;;;;5079893;28;20362;-84
2022/01/27 06:04:15;;;;;;;6.65;1.75;;;27.20;84.50;;;;;;5074990;28;20402;-86
2022/01/27 06:06:41;;;;;;;5.93;1.58;;;27.10;84.50;;;;;;5075069;28;20914;-85
2022/01/27 06:09:08;;;;;;;9.05;1.80;;;27.00;85.00;;;;;;5077469;28;20378;-83
2022/01/27 06:11:35;;;;;;;6.85;1.75;;;27.10;85.80;;;;;;5075254;28;20366;-83
2022/01/27 06:14:02;;;;;;;6.47;1.60;;;27.00;87.40;;;;;;5074897;28;20414;-85
2022/01/27 06:16:29;;;;;;;6.43;1.65;;;27.00;87.30;;;;;;5075032;28;20401;-86
2022/01/27 06:18:56;;;;;;;7.03;1.70;;;27.00;87.10;;;;;;5075001;28;20378;-86
2022/01/27 06:21:23;;;;;;;5.82;1.70;;;27.00;86.90;;;;;;5074669;28;20374;-81
2022/01/27 06:23:50;;;;;;;7.88;2.00;;;27.00;87.70;;;;;;5074896;28;20459;-84
2022/01/27 06:26:17;;;;;;;8.55;2.00;;;27.10;87.20;;;;;;5074768;28;20876;-87
2022/01/27 06:28:44;;;;;;;4.20;1.70;;;27.00;87.60;;;;;;5074861;28;20387;-89
2022/01/27 06:31:12;;;;;;;6.70;1.75;;;27.00;88.10;;;;;;5056620;28;20885;-86
2022/01/27 06:33:39;;;;;;;5.60;1.70;;;27.00;88.50;;;;;;5074907;28;20389;-87
2022/01/27 06:36:06;;;;;;;6.97;1.80;;;27.00;88.60;;;;;;5074592;28;20397;-86
2022/01/27 06:38:33;;;;;;;5.90;1.80;;;27.00;89.00;;;;;;5074250;28;20385;-83
2022/01/27 06:40:59;;;;;;;6.30;1.90;;;27.00;89.00;;;;;;5073583;28;20392;-83
2022/01/27 06:43:26;;;;;;;6.37;1.70;;;27.10;88.80;;;;;;5074580;28;20409;-84
2022/01/27 06:45:53;;;;;;;6.00;1.85;;;27.20;88.80;;;;;;5075252;28;20404;-82
2022/01/27 06:48:20;;;;;;;6.28;1.88;;;27.10;88.40;;;;;;5076007;28;20373;-87
2022/01/27 06:50:53;;;;;;;6.65;1.70;;;27.10;88.40;;;;;;5074482;28;20930;-86
2022/01/27 06:53:20;;;;;;;6.95;1.77;;;27.10;89.10;;;;;;5078050;28;20358;-80
2022/01/27 06:55:47;;;;;;;5.75;1.80;;;27.10;89.50;;;;;;5081170;28;20378;-82
2022/01/27 06:58:14;;;;;;;5.20;1.73;;;27.20;89.20;;;;;;5076531;28;20363;-84
2022/01/27 07:00:41;;;;;;;6.77;1.87;;;27.20;88.80;;;;;;5074919;28;20381;-81
2022/01/27 07:03:08;;;;;;;6.63;1.75;;;27.10;89.00;;;;;;5074712;28;20377;-85
2022/01/27 07:05:36;;;;;;;9.05;1.70;;;27.00;89.50;;;;;;5074000;28;20406;-81
2022/01/27 07:08:03;;;;;;;8.13;2.30;;;27.00;89.80;;;;;;5073790;28;20398;-77
2022/01/27 07:10:30;;;;;;;8.63;2.60;;;26.80;90.30;;;;;;5073825;28;20527;-83
2022/01/27 07:12:57;;;;;;;7.60;2.65;;;26.90;90.50;;;;;;5073778;28;20667;-84
2022/01/27 07:15:24;;;;;;;6.50;2.03;;;26.80;90.70;;;;;;5073726;28;20446;-80
2022/01/27 07:17:52;;;;;;;6.37;2.23;;;26.80;90.70;;;;;;5073698;28;20455;-79
2022/01/27 07:20:18;;;;;;;5.57;1.80;;;26.70;91.30;;;;;;5074065;28;20378;-83
2022/01/27 07:22:45;;;;;;;5.75;1.60;;;26.70;91.20;;;;;;5073623;28;20374;-81
2022/01/27 07:25:13;;;;;;;7.38;1.77;;;26.70;91.60;;;;;;5073622;28;20464;-80
2022/01/27 07:27:40;;;;;;;4.95;1.73;;;26.60;91.70;;;;;;5073528;28;20366;-83
2022/01/27 07:30:07;;;;;;;6.18;1.77;;;26.50;92.00;;;;;;5073424;28;20417;-79
2022/01/27 07:32:34;;;;;;;7.63;1.88;;;26.40;92.30;;;;;;5074745;28;20457;-83
2022/01/27 07:35:05;;;;;;;6.25;1.60;;;26.30;92.50;;;;;;5073395;28;20386;-85
2022/01/27 07:37:32;;;;;;;6.53;1.60;;;26.40;92.50;;;;;;5073698;28;20374;-80
2022/01/27 07:39:59;;;;;;;5.90;1.40;;;26.30;93.00;;;;;;5073384;28;20413;-81
2022/01/27 07:42:26;;;;;;;5.57;1.40;;;26.30;92.90;;;;;;5073050;28;20382;-80
2022/01/27 07:44:52;;;;;;;6.90;1.80;;;26.20;93.10;;;;;;5073709;28;20742;-77
2022/01/27 07:47:19;;;;;;;5.55;1.80;;;26.20;93.50;;;;;;5073136;28;20373;-86
2022/01/27 07:49:46;;;;;;;5.72;1.50;;;26.10;93.50;;;;;;5073152;28;20388;-82
2022/01/27 07:52:14;;;;;;;8.13;1.80;;;26.00;93.70;;;;;;5072732;28;20405;-86
2022/01/27 07:54:41;;;;;;;6.80;1.70;;;26.00;93.90;;;;;;5073078;28;20448;-81
2022/01/27 07:57:08;;;;;;;4.80;1.40;;;26.00;94.10;;;;;;5072906;28;20797;-79
2022/01/27 07:59:34;;;;;;;8.50;1.83;;;25.90;94.20;;;;;;5072814;28;20374;-81
2022/01/27 08:02:01;;;;;;;8.85;1.70;;;25.90;94.30;;;;;;5072715;28;20862;-80
2022/01/27 08:04:28;;;;;;;8.27;2.03;;;25.90;94.50;;;;;;5072898;28;20406;-84
2022/01/27 08:06:56;;;;;;;7.05;1.70;;;25.80;95.00;;;;;;5072834;28;20461;-83
2022/01/27 08:09:24;;;;;;;6.10;1.70;;;25.70;95.10;;;;;;5072644;28;20378;-82
2022/01/27 08:11:51;;;;;;;7.60;2.22;;;25.70;95.20;;;;;;5072680;28;20384;-83
2022/01/27 08:14:18;;;;;;;8.25;1.80;;;25.70;95.20;;;;;;5072819;28;20366;-84
2022/01/27 08:16:45;;;;;;;6.22;1.77;;;25.70;95.20;;;;;;5073407;28;20378;-84
2022/01/27 08:19:12;;;;;;;6.80;1.65;;;25.70;95.30;;;;;;5072574;28;20428;-84
2022/01/27 08:21:39;;;;;;;6.43;1.70;;;25.60;95.20;;;;;;5072558;28;20387;-85
2022/01/27 08:24:06;;;;;;;6.93;1.80;;;25.60;95.50;;;;;;5072390;28;20475;-84
2022/01/27 08:26:44;;;;;;;7.10;1.55;;;25.50;95.40;;;;;;5072492;28;20446;-82
2022/01/27 08:29:20;;;;;;;7.35;1.80;;;25.40;95.60;;;;;;5072408;28;20892;-85
2022/01/27 08:31:59;;;;;;;5.85;1.52;;;25.30;95.90;;;;;;5072949;28;20806;-90
2022/01/27 08:34:34;;;;;;;7.17;1.43;;;25.30;96.20;;;;;;5072544;28;20366;-85
2022/01/27 08:37:04;;;;;;;5.88;1.42;;;25.20;96.00;;;;;;5074178;28;20381;-84
2022/01/27 08:39:32;;;;;;;5.65;1.67;;;25.20;96.20;;;;;;5072482;28;20370;-86
2022/01/27 08:41:59;;;;;;;5.32;1.40;;;25.10;96.20;;;;;;5072367;28;20797;-86
2022/01/27 08:44:26;;;;;;;5.18;1.35;;;25.10;96.50;;;;;;5072525;28;20397;-85
2022/01/27 08:46:53;;;;;;;5.63;1.50;;;25.00;96.50;;;;;;5072172;28;20381;-83
2022/01/27 08:49:23;;;;;;;6.90;1.63;;;24.90;96.50;;;;;;5072206;28;20381;-84
2022/01/27 08:51:50;;;;;;;6.82;1.50;;;24.90;96.80;;;;;;5072164;28;20401;-85
2022/01/27 08:54:17;;;;;;;7.13;1.52;;;24.90;96.90;;;;;;5054294;28;20392;-83
2022/01/27 08:56:44;;;;;;;4.93;1.20;;;24.90;96.90;;;;;;5074236;28;20480;-85
2022/01/27 08:59:12;;;;;;;5.03;1.20;;;24.80;97.10;;;;;;5073834;28;20434;-84
2022/01/27 09:01:40;;;;;;;5.95;2.58;;;24.70;97.50;;;;;;5071975;28;20857;-86
2022/01/27 09:04:08;;;;;;;5.97;1.70;;;24.70;97.50;;;;;;5071657;28;20869;-84
2022/01/27 09:06:37;;;;;;;6.20;1.40;;;24.70;98.00;;;;;;5072621;28;20457;-84
2022/01/27 09:09:05;;;;;;;5.88;1.30;;;24.70;98.00;;;;;;5071845;28;20362;-82
2022/01/27 09:11:33;;;;;;;6.75;1.60;;;24.60;98.10;;;;;;5071963;28;20374;-82
2022/01/27 09:14:01;;;;;;;9.35;1.77;;;24.60;98.10;;;;;;5071886;28;20485;-86
2022/01/27 09:16:31;;;;;;;9.52;1.90;;;24.60;98.20;;;;;;5072244;28;20421;-83
2022/01/27 09:19:01;;;;;;;7.70;1.90;;;24.70;98.20;;;;;;5071909;28;20370;-85
2022/01/27 09:21:39;;;;;;;5.97;1.40;;;24.70;98.20;;;;;;5071944;28;20842;-86
2022/01/27 09:24:06;;;;;;;8.73;1.60;;;24.60;98.10;;;;;;5071790;28;20386;-85
2022/01/27 09:26:49;;;;;;;8.32;1.60;;;24.50;98.20;;;;;;5071987;28;20369;-83
2022/01/27 09:29:18;;;;;;;6.03;1.50;;;24.50;98.70;;;;;;5071877;28;20359;-82
2022/01/27 09:31:46;;;;;;;5.32;1.40;;;24.40;98.70;;;;;;5071782;28;20378;-80
2022/01/27 09:34:13;;;;;;;6.18;1.40;;;24.40;98.80;;;;;;5071820;28;20388;-84
2022/01/27 09:36:41;;;;;;;6.78;1.30;;;24.40;98.80;;;;;;5071780;28;20398;-85
2022/01/27 09:39:08;;;;;;;6.30;1.38;;;24.40;98.80;;;;;;5071644;28;20368;-85
2022/01/27 09:41:38;;;;;;;8.25;1.60;;;24.40;98.90;;;;;;5071534;28;20394;-85
2022/01/27 09:44:09;;;;;;;5.95;1.30;;;24.40;99.00;;;;;;5071685;28;20404;-81
2022/01/27 09:46:39;;;;;;;5.38;1.30;;;24.40;99.20;;;;;;5071722;28;20362;-84
2022/01/27 09:49:12;;;;;;;4.87;1.20;;;24.30;99.30;;;;;;5071646;28;20374;-80
2022/01/27 09:51:44;;;;;;;4.78;1.13;;;24.30;99.50;;;;;;5071557;28;20432;-86
2022/01/27 09:54:13;;;;;;;6.53;1.60;;;24.20;99.80;;;;;;5071502;28;20394;-83
2022/01/27 09:56:41;;;;;;;4.63;1.10;;;24.20;99.90;;;;;;5071505;28;20756;-85
2022/01/27 09:59:09;;;;;;;5.40;1.33;;;24.20;99.90;;;;;;5071726;28;20378;-85
2022/01/27 10:01:38;;;;;;;5.85;1.67;;;24.20;99.90;;;;;;5071577;28;20378;-84
2022/01/27 10:04:09;;;;;;;5.53;1.30;;;24.20;99.90;;;;;;5071535;28;20414;-83
2022/01/27 10:06:37;;;;;;;5.23;1.40;;;24.20;99.90;;;;;;5053542;28;20451;-83
2022/01/27 10:09:27;;;;;;;6.50;1.50;;;24.10;99.90;;;;;;5071434;28;20358;-83
2022/01/27 10:11:54;;;;;;;7.72;1.40;;;24.10;99.90;;;;;;5071902;28;20370;-84
2022/01/27 10:14:27;;;;;;;6.73;1.40;;;24.10;99.90;;;;;;5073402;28;20370;-87
2022/01/27 10:16:58;;;;;;;5.90;1.40;;;24.00;99.90;;;;;;5078272;28;20374;-82
2022/01/27 10:19:28;;;;;;;7.97;1.50;;;24.00;99.90;;;;;;5076918;28;20398;-80
2022/01/27 10:22:04;;;;;;;7.17;1.20;;;24.00;99.90;;;;;;5083229;28;20884;-81
2022/01/27 10:24:33;;;;;;;6.32;1.40;;;24.00;99.90;;;;;;5077596;28;20406;-84
2022/01/27 10:27:46;;;;;;;5.47;1.48;;;24.00;99.90;;;;;;5076228;28;20443;-89
2022/01/27 10:32:59;;;;;;;4.93;1.60;;;24.00;99.90;;;;;;5076944;28;20858;-81
2022/01/27 10:35:28;;;;;;;6.75;1.63;;;24.10;99.90;;;;;;5076081;28;20858;-90
2022/01/27 10:37:55;;;;;;;6.60;1.80;;;23.80;99.90;;;;;;5079505;28;20382;-86
2022/01/27 10:40:37;;;;;;;10.00;1.65;;;24.10;99.90;;;;;;5081450;28;20377;-82
2022/01/27 10:43:15;;;;;;;5.60;1.42;;;24.00;99.90;;;;;;5080214;28;20369;-89
2022/01/27 10:46:08;;;;;;;6.97;1.57;;;24.00;99.90;;;;;;5081497;28;20408;-88
2022/01/27 10:48:51;;;;;;;6.18;1.48;;;23.90;99.90;;;;;;5082457;28;20411;-82
2022/01/27 10:51:25;;;;;;;8.35;1.90;;;24.00;99.90;;;;;;5076746;28;20450;-87
2022/01/27 10:54:06;;;;;;;7.57;1.70;;;23.90;99.90;;;;;;5075409;28;20371;-81
2022/01/27 10:56:40;;;;;;;7.67;1.63;;;23.90;99.90;;;;;;5078143;28;20366;-80
2022/01/27 10:59:12;;;;;;;6.87;1.70;;;23.80;99.90;;;;;;5074951;28;20374;-83
2022/01/27 11:01:51;;;;;;;8.60;1.88;;;23.80;99.90;;;;;;5057209;28;20374;-86
2022/01/27 11:04:20;;;;;;;6.72;1.50;;;23.80;99.90;;;;;;5079493;28;20398;-84
2022/01/27 11:06:56;;;;;;;6.85;1.55;;;23.90;99.90;;;;;;5063524;28;20464;-81
2022/01/27 11:09:23;;;;;;;8.18;1.40;;;23.90;99.90;;;;;;5077969;28;20365;-81
2022/01/27 11:11:53;;;;;;;7.27;2.07;;;23.90;99.90;;;;;;5076868;28;20378;-84
2022/01/27 11:14:22;;;;;;;8.68;1.92;;;23.90;99.90;;;;;;5075792;28;20380;-80
2022/01/27 11:16:54;;;;;;;7.80;1.98;;;23.90;99.90;;;;;;5076422;28;20729;-82
2022/01/27 11:20:02;;;;;;;7.93;1.75;;;23.90;99.90;;;;;;5076869;28;20366;-86
2022/01/27 11:22:27;;;;;;;6.72;1.60;;;23.80;99.90;;;;;;5077252;28;20382;-81
2022/01/27 11:27:33;;;;;;;8.25;1.50;;;23.80;99.90;;;;;;5077374;28;20374;-84
2022/01/27 11:30:06;;;;;;;7.47;1.70;;;23.80;99.90;;;;;;5077986;28;20362;-82
2022/01/27 11:32:39;;;;;;;6.95;1.27;;;23.80;99.90;;;;;;5079658;28;20401;-84
2022/01/27 11:35:21;;;;;;;6.85;1.30;;;23.80;99.90;;;;;;5077360;28;20373;-80
2022/01/27 11:37:53;;;;;;;6.60;1.42;;;23.80;99.90;;;;;;5077682;28;20397;-83
2022/01/27 11:40:41;;;;;;;5.30;1.30;;;23.70;99.90;;;;;;5041272;28;20444;-81
2022/01/27 11:43:12;;;;;;;6.95;1.30;;;23.70;99.90;;;;;;5075224;28;20757;-84
2022/01/27 11:45:44;;;;;;;7.50;1.38;;;23.80;99.90;;;;;;5073643;28;20472;-80
2022/01/27 11:48:22;;;;;;;7.90;1.60;;;23.80;99.90;;;;;;5074348;28;20382;-84
2022/01/27 11:51:10;;;;;;;6.57;1.40;;;23.80;99.90;;;;;;5074143;28;20877;-81
2022/01/27 11:53:45;;;;;;;6.30;1.35;;;23.70;99.90;;;;;;5074098;28;20375;-82
2022/01/27 11:56:15;;;;;;;7.28;1.40;;;23.70;99.90;;;;;;5073560;28;20738;-83
2022/01/27 11:58:45;;;;;;;9.57;1.75;;;23.70;99.90;;;;;;5074498;28;20370;-81
2022/01/27 12:01:14;;;;;;;7.72;1.48;;;23.70;99.90;;;;;;5073760;28;20385;-89
2022/01/27 12:04:09;;;;;;;9.90;1.45;;;23.70;99.90;;;;;;5073899;28;20386;-86
2022/01/27 12:06:41;;;;;;;7.50;1.40;;;23.60;99.90;;;;;;5074014;28;20374;-81
2022/01/27 12:09:25;;;;;;;9.67;1.70;;;23.70;99.90;;;;;;5073911;28;20929;-85
2022/01/27 12:11:55;;;;;;;4.93;1.40;;;23.70;99.90;;;;;;5073956;28;20427;-82
2022/01/27 12:14:30;;;;;;;7.03;1.57;;;23.70;99.90;;;;;;5073867;28;20504;-85
2022/01/27 12:17:23;;;;;;;8.10;1.70;;;23.70;99.90;;;;;;5073048;28;20362;-86
2022/01/27 12:20:11;;;;;;;6.97;1.47;;;23.70;99.90;;;;;;5070193;28;20377;-83
2022/01/27 12:22:47;;;;;;;8.00;1.40;;;23.70;99.90;;;;;;5072857;28;20401;-85
2022/01/27 12:25:15;;;;;;;7.32;1.52;;;23.70;99.90;;;;;;5073114;28;20467;-81
2022/01/27 12:27:48;;;;;;;7.30;1.40;;;23.70;99.90;;;;;;5073479;28;20366;-81
2022/01/27 12:30:15;;;;;;;7.60;1.60;;;23.70;99.90;;;;;;5073367;28;20367;-81
2022/01/27 12:32:42;;;;;;;6.57;1.48;;;23.70;99.90;;;;;;5073213;28;20378;-82
2022/01/27 12:35:15;;;;;;;5.18;1.50;;;23.70;99.90;;;;;;5073970;28;20374;-83
2022/01/27 12:37:46;;;;;;;6.10;1.60;;;23.70;99.90;;;;;;5072408;28;20366;-85
2022/01/27 12:40:26;;;;;;;9.07;1.40;;;23.70;99.90;;;;;;5072799;28;20427;-82
2022/01/27 12:43:01;;;;;;;7.45;1.50;;;23.70;99.90;;;;;;5032769;28;20393;-83
2022/01/27 12:45:33;;;;;;;5.97;1.35;;;23.70;99.90;;;;;;5032964;28;20412;-82
2022/01/27 12:48:04;;;;;;;6.30;1.60;;;23.70;99.90;;;;;;5032678;28;20448;-86
2022/01/27 12:50:34;;;;;;;5.90;1.40;;;23.70;99.90;;;;;;5033138;28;20464;-84
2022/01/27 12:53:08;;;;;;;8.00;1.45;;;23.70;99.90;;;;;;5033296;28;20440;-81
2022/01/27 12:55:38;;;;;;;7.72;1.50;;;23.70;99.90;;;;;;5033022;28;20409;-84
2022/01/27 12:58:10;;;;;;;5.55;1.17;;;23.70;99.90;;;;;;5032920;28;20365;-84
2022/01/27 13:00:43;;;;;;;7.47;1.40;;;23.70;99.90;;;;;;5032978;28;20472;-87
2022/01/27 13:03:10;;;;;;;7.80;1.50;;;23.60;99.90;;;;;;5032902;28;20424;-85
2022/01/27 13:05:40;;;;;;;8.48;1.48;;;23.60;99.90;;;;;;5032700;28;20397;-86
2022/01/27 13:08:13;;;;;;;7.50;1.42;;;23.60;99.90;;;;;;5032756;28;20377;-85
2022/01/27 13:10:52;;;;;;;7.55;1.65;;;23.70;99.90;;;;;;5032977;28;20903;-83
2022/01/27 13:13:39;;;;;;;5.43;1.30;;;23.70;99.90;;;;;;5032536;28;20868;-86
2022/01/27 13:16:12;;;;;;;7.30;1.67;;;23.60;99.90;;;;;;5033340;28;20934;-86
2022/01/27 13:18:48;;;;;;;5.23;1.50;;;23.60;99.90;;;;;;5032971;28;20480;-81
2022/01/27 13:21:27;;;;;;;8.43;1.77;;;23.60;99.90;;;;;;5033133;28;20373;-81
2022/01/27 13:24:15;;;;;;;7.78;1.60;;;23.60;99.90;;;;;;5032445;28;20396;-81
2022/01/27 13:26:44;;;;;;;7.37;1.50;;;23.60;99.90;;;;;;5033001;28;20384;-82
2022/01/27 13:29:19;;;;;;;8.02;1.85;;;23.60;99.90;;;;;;5032641;28;20377;-87
2022/01/27 13:31:46;;;;;;;7.40;1.45;;;23.60;99.90;;;;;;5032547;28;20381;-86
2022/01/27 13:34:14;;;;;;;8.13;1.75;;;23.50;99.90;;;;;;5032895;28;20381;-83
2022/01/27 13:36:55;;;;;;;7.85;1.75;;;23.60;99.90;;;;;;5032504;28;20431;-84
2022/01/27 13:39:47;;;;;;;5.57;1.42;;;23.50;99.90;;;;;;5032618;28;20361;-83
2022/01/27 13:42:12;;;;;;;5.47;1.55;;;23.50;99.90;;;;;;5063805;28;20394;-82
2022/01/27 13:45:00;;;;;;;9.43;1.60;;;23.50;99.90;;;;;;5072101;28;20460;-83
2022/01/27 13:47:30;;;;;;;6.85;1.52;;;23.50;99.90;;;;;;5072997;28;20404;-82